Time;durP1;ratioP1;P1;durP2;ratioP2;P2;SDS_P1;SDS_P2;PMS_P1;PMS_P2;Temp;Humidity;BMP_temperature;BMP_pressure;BME280_temperature;BME280_humidity;BME280_pressure;Samples;Min_cycle;Max_cycle;Signal;HPM_P1;HPM_P2
2022/05/20 00:01:17;;;;;;;30.30;22.07;;;;;;;15.19;100.00;101521.81;5093960;28;20190;-70
2022/05/20 00:03:45;;;;;;;24.40;20.17;;;;;;;15.18;100.00;101520.13;5093631;28;20236;-70
2022/05/20 00:06:11;;;;;;;28.83;22.77;;;;;;;15.23;100.00;101526.03;5093603;28;20193;-70
2022/05/20 00:08:38;;;;;;;40.97;24.87;;;;;;;15.27;100.00;101519.66;5093531;28;20239;-70
2022/05/20 00:11:05;;;;;;;35.17;23.73;;;;;;;15.27;100.00;101523.16;5093551;28;20185;-70
2022/05/20 00:13:32;;;;;;;33.33;23.67;;;;;;;15.28;100.00;101518.75;5093431;28;20239;-70
2022/05/20 00:15:59;;;;;;;35.13;23.10;;;;;;;15.28;100.00;101511.69;5093466;28;20663;-70
2022/05/20 00:18:26;;;;;;;33.50;24.83;;;;;;;15.24;100.00;101514.56;5093749;28;20268;-70
2022/05/20 00:20:52;;;;;;;41.57;25.27;;;;;;;15.18;100.00;101510.41;5093981;28;20182;-70
2022/05/20 00:23:19;;;;;;;34.80;23.63;;;;;;;15.11;100.00;101506.38;5093672;28;20178;-70
2022/05/20 00:25:45;;;;;;;35.67;24.63;;;;;;;15.13;100.00;101500.06;5093410;28;20610;-70
2022/05/20 00:28:33;;;;;;;39.57;25.80;;;;;;;15.11;100.00;101501.09;5093350;28;20555;-70
2022/05/20 00:31:05;;;;;;;36.17;23.13;;;;;;;15.11;100.00;101501.94;5093638;28;20185;-70
2022/05/20 00:33:32;;;;;;;36.20;22.80;;;;;;;15.10;100.00;101494.09;5093727;28;20198;-70
2022/05/20 00:35:59;;;;;;;31.77;20.83;;;;;;;15.09;100.00;101495.91;5097544;28;20182;-70
2022/05/20 00:38:29;;;;;;;28.53;21.07;;;;;;;15.09;100.00;101495.91;5097494;28;20705;-70
2022/05/20 00:40:57;;;;;;;32.30;21.30;;;;;;;15.09;100.00;101489.75;5097935;28;20194;-70
2022/05/20 00:43:24;;;;;;;34.10;21.97;;;;;;;15.06;100.00;101488.09;5097375;28;20193;-70
2022/05/20 00:45:52;;;;;;;26.60;19.30;;;;;;;15.06;100.00;101495.16;5097363;28;20263;-70
2022/05/20 00:48:19;;;;;;;36.23;23.23;;;;;;;15.06;100.00;101492.53;5097303;28;20251;-70
2022/05/20 00:50:55;;;;;;;31.27;22.33;;;;;;;15.02;100.00;101502.38;5097059;28;20266;-70
2022/05/20 00:53:23;;;;;;;25.93;20.93;;;;;;;14.97;100.00;101493.81;5097448;28;20658;-70
2022/05/20 00:55:50;;;;;;;25.53;19.70;;;;;;;14.97;100.00;101504.38;5097204;28;20225;-70
2022/05/20 00:58:20;;;;;;;25.10;20.03;;;;;;;14.95;100.00;101498.31;5097161;28;20199;-70
2022/05/20 01:00:51;;;;;;;25.33;20.50;;;;;;;14.94;100.00;101504.53;5097319;28;20553;-70
2022/05/20 01:03:21;;;;;;;24.70;19.43;;;;;;;14.92;100.00;101502.88;5097370;28;20181;-70
2022/05/20 01:05:50;;;;;;;28.43;21.17;;;;;;;14.88;100.00;101496.06;5097011;28;20247;-70
2022/05/20 01:08:20;;;;;;;34.87;22.57;;;;;;;14.82;100.00;101498.03;5097221;28;20561;-70
2022/05/20 01:10:46;;;;;;;39.00;24.53;;;;;;;14.77;100.00;101497.38;5096873;28;20201;-70
2022/05/20 01:13:15;;;;;;;37.37;24.77;;;;;;;14.76;100.00;101502.75;5096800;28;20596;-70
2022/05/20 01:15:42;;;;;;;36.00;24.93;;;;;;;14.73;100.00;101508.16;5096782;28;20190;-70
2022/05/20 01:18:10;;;;;;;33.83;21.13;;;;;;;14.71;100.00;101504.72;5096771;28;20183;-70
2022/05/20 01:20:39;;;;;;;31.97;19.10;;;;;;;14.67;100.00;101514.56;5096629;28;20205;-70
2022/05/20 01:23:16;;;;;;;25.20;19.73;;;;;;;14.66;100.00;101506.72;5096936;28;20182;-70
2022/05/20 01:25:45;;;;;;;27.93;21.43;;;;;;;14.64;100.00;101500.66;5096916;28;20219;-70
2022/05/20 01:28:12;;;;;;;25.83;18.50;;;;;;;14.57;100.00;101497.44;5096542;28;20243;-70
2022/05/20 01:30:42;;;;;;;24.27;19.27;;;;;;;14.55;100.00;101502.78;5096449;28;20202;-70
2022/05/20 01:33:10;;;;;;;30.87;21.80;;;;;;;14.54;100.00;101506.34;5096687;28;20656;-70
2022/05/20 01:35:41;;;;;;;35.23;21.77;;;;;;;14.52;100.00;101500.31;5096399;28;20609;-70
2022/05/20 01:38:09;;;;;;;33.60;20.17;;;;;;;14.48;100.00;101501.34;5096428;28;20224;-70
2022/05/20 01:40:56;;;;;;;25.63;21.33;;;;;;;14.45;100.00;101497.97;5096301;28;20209;-70
2022/05/20 01:43:44;;;;;;;32.17;22.73;;;;;;;14.44;100.00;101496.28;5096605;28;20563;-70
2022/05/20 01:46:27;;;;;;;31.10;21.33;;;;;;;14.45;100.00;101488.28;5096481;28;20645;-70
2022/05/20 01:49:22;;;;;;;31.93;21.03;;;;;;;14.38;100.00;101500.03;5096414;28;20262;-70
2022/05/20 01:51:53;;;;;;;28.97;21.60;;;;;;;14.40;100.00;101497.31;5096036;28;20218;-70
2022/05/20 01:54:27;;;;;;;23.87;19.87;;;;;;;14.37;100.00;101497.47;5096320;28;20190;-70
2022/05/20 01:57:01;;;;;;;23.37;18.10;;;;;;;14.32;100.00;101495.88;5096331;28;20181;-70
2022/05/20 01:59:34;;;;;;;25.60;19.87;;;;;;;14.28;100.00;101498.72;5077849;28;20218;-70
2022/05/20 02:02:10;;;;;;;30.17;21.23;;;;;;;14.26;100.00;101492.66;5095950;28;20624;-70
2022/05/20 02:04:43;;;;;;;25.53;20.40;;;;;;;14.21;100.00;101487.59;5096189;28;20524;-70
2022/05/20 02:07:16;;;;;;;22.87;19.70;;;;;;;14.19;100.00;101478.06;5096405;28;20178;-70
2022/05/20 02:09:49;;;;;;;24.13;19.43;;;;;;;14.16;100.00;101481.69;5096030;28;20263;-70
2022/05/20 02:12:19;;;;;;;36.83;21.93;;;;;;;14.14;100.00;101480.88;5095774;28;20174;-70
2022/05/20 02:14:55;;;;;;;30.43;22.70;;;;;;;14.18;100.00;101476.34;5095639;28;20194;-70
2022/05/20 02:17:33;;;;;;;30.93;21.00;;;;;;;14.11;100.00;101469.63;5095971;28;20571;-70
2022/05/20 02:20:11;;;;;;;30.10;21.47;;;;;;;14.04;100.00;101477.81;5095804;28;20214;-70
2022/05/20 02:22:44;;;;;;;27.03;20.50;;;;;;;14.00;100.00;101473.63;5095849;28;20213;-70
2022/05/20 02:25:15;;;;;;;31.23;22.17;;;;;;;13.98;100.00;101471.94;5095819;28;20531;-70
2022/05/20 02:27:49;;;;;;;34.63;22.73;;;;;;;13.95;100.00;101469.47;5096005;28;20224;-70
2022/05/20 02:30:25;;;;;;;31.33;22.33;;;;;;;13.93;100.00;101456.38;5095322;28;20205;-69
2022/05/20 02:32:58;;;;;;;31.17;21.57;;;;;;;13.93;100.00;101463.38;5095364;28;20196;-69
2022/05/20 02:35:24;;;;;;;33.50;22.50;;;;;;;13.91;100.00;101458.19;5095775;28;20190;-69
2022/05/20 02:38:04;;;;;;;37.33;23.97;;;;;;;13.93;100.00;101452.84;5095491;28;20223;-69
2022/05/20 02:40:31;;;;;;;36.80;22.70;;;;;;;13.91;100.00;101457.34;5095395;28;20209;-70
2022/05/20 02:42:57;;;;;;;29.07;21.13;;;;;;;13.89;100.00;101446.88;5095098;28;20201;-70
2022/05/20 02:45:23;;;;;;;31.47;21.47;;;;;;;13.88;100.00;101453.06;5095069;28;20220;-70
2022/05/20 02:47:50;;;;;;;31.53;21.07;;;;;;;13.88;100.00;101446.94;5095358;28;20174;-70
2022/05/20 02:50:16;;;;;;;24.13;19.13;;;;;;;13.79;100.00;101456.09;5095030;28;20210;-70
2022/05/20 02:52:43;;;;;;;24.20;19.67;;;;;;;13.75;100.00;101452.72;5094811;28;20605;-70
2022/05/20 02:55:10;;;;;;;27.97;18.40;;;;;;;13.74;100.00;101460.69;5094879;28;20259;-70
2022/05/20 02:57:36;;;;;;;29.23;21.07;;;;;;;13.69;100.00;101463.50;5094605;28;20254;-70
2022/05/20 03:05:36;;;;;;;20.23;18.00;;;;;;;13.43;100.00;101448.84;5094976;28;20507;-70
2022/05/20 03:08:03;;;;;;;27.57;18.53;;;;;;;13.39;100.00;101446.38;5094910;28;20193;-70
2022/05/20 03:10:30;;;;;;;27.33;18.97;;;;;;;13.37;100.00;101443.81;5094516;28;20714;-70
2022/05/20 03:13:01;;;;;;;29.67;20.10;;;;;;;13.38;100.00;101453.44;5094536;28;20186;-70
2022/05/20 03:15:29;;;;;;;38.33;22.93;;;;;;;13.44;100.00;101452.31;5094676;28;20224;-70
2022/05/20 03:17:56;;;;;;;31.57;21.33;;;;;;;13.34;100.00;101458.88;5094460;28;20185;-70
2022/05/20 03:20:23;;;;;;;29.07;19.93;;;;;;;13.27;100.00;101463.50;5094358;28;20209;-70
2022/05/20 03:22:49;;;;;;;34.53;21.10;;;;;;;13.24;100.00;101453.13;5094605;28;20733;-70
2022/05/20 03:25:16;;;;;;;31.33;20.97;;;;;;;13.22;100.00;101452.34;5094336;28;20195;-70
2022/05/20 03:27:43;;;;;;;29.73;21.50;;;;;;;13.23;100.00;101443.53;5094253;28;20250;-70
2022/05/20 03:30:10;;;;;;;31.47;20.60;;;;;;;13.23;100.00;101447.94;5094168;28;20206;-70
2022/05/20 03:32:38;;;;;;;27.33;20.87;;;;;;;13.25;100.00;101449.59;5094216;28;20186;-70
2022/05/20 03:35:05;;;;;;;29.87;20.97;;;;;;;13.26;100.00;101447.81;5094315;28;20744;-70
2022/05/20 03:37:31;;;;;;;26.73;19.00;;;;;;;13.20;100.00;101438.38;5094358;28;20223;-70
2022/05/20 03:39:59;;;;;;;21.97;17.90;;;;;;;13.20;100.00;101446.28;5094065;28;20292;-70
2022/05/20 03:42:26;;;;;;;22.53;18.37;;;;;;;13.16;100.00;101442.03;5094016;28;20675;-70
2022/05/20 03:44:53;;;;;;;28.23;19.97;;;;;;;13.15;100.00;101445.59;5093953;28;20185;-70
2022/05/20 03:47:19;;;;;;;28.17;19.30;;;;;;;13.16;100.00;101444.66;5093953;28;20189;-70
2022/05/20 03:49:46;;;;;;;30.37;20.50;;;;;;;13.16;100.00;101444.66;5094339;28;20262;-70
2022/05/20 03:52:14;;;;;;;35.03;21.87;;;;;;;13.23;100.00;101454.06;5093749;28;20198;-70
2022/05/20 03:54:41;;;;;;;36.20;21.13;;;;;;;13.25;100.00;101451.34;5093732;28;20687;-70
2022/05/20 03:57:08;;;;;;;31.73;20.97;;;;;;;13.22;100.00;101449.72;5094037;28;20194;-70
2022/05/20 03:59:37;;;;;;;29.43;19.80;;;;;;;13.24;100.00;101453.13;5093640;28;20258;-70
2022/05/20 04:02:10;;;;;;;27.20;18.93;;;;;;;13.25;100.00;101448.72;5093978;28;20194;-70
2022/05/20 04:04:46;;;;;;;22.33;17.83;;;;;;;13.26;100.00;101453.91;5093980;28;20169;-70
2022/05/20 04:07:15;;;;;;;28.33;17.57;;;;;;;13.28;100.00;101454.69;5093929;28;20388;-70
2022/05/20 04:09:42;;;;;;;29.13;21.20;;;;;;;13.29;100.00;101453.81;5093506;28;20598;-70
2022/05/20 04:12:19;;;;;;;32.50;21.47;;;;;;;13.32;100.00;101452.81;5093772;28;20663;-70
2022/05/20 04:14:45;;;;;;;31.47;21.20;;;;;;;13.33;100.00;101450.13;5094032;28;20242;-70
2022/05/20 04:17:11;;;;;;;35.27;22.90;;;;;;;13.35;100.00;101453.53;5093715;28;20186;-70
2022/05/20 04:19:38;;;;;;;28.27;19.83;;;;;;;13.36;100.00;101452.63;5093648;28;20243;-70
2022/05/20 04:22:08;;;;;;;30.77;20.73;;;;;;;13.41;100.00;101453.28;5093388;28;20240;-70
2022/05/20 04:24:35;;;;;;;26.70;19.50;;;;;;;13.41;100.00;101453.28;5093424;28;20201;-70
2022/05/20 04:27:02;;;;;;;34.90;23.20;;;;;;;13.43;100.00;101461.09;5093392;28;20185;-70
2022/05/20 04:29:29;;;;;;;33.83;22.20;;;;;;;13.47;100.00;101453.03;5093293;28;20201;-70
2022/05/20 04:31:56;;;;;;;33.33;22.57;;;;;;;13.49;100.00;101453.81;5093864;28;20551;-70
2022/05/20 04:34:24;;;;;;;33.13;22.70;;;;;;;13.49;100.00;101450.34;5093244;28;20281;-70
2022/05/20 04:36:50;;;;;;;28.90;21.47;;;;;;;13.52;100.00;101444.97;5093596;28;20181;-70
2022/05/20 04:39:17;;;;;;;30.97;21.00;;;;;;;13.55;100.00;101443.97;5093564;28;20259;-70
2022/05/20 04:47:26;;;;;;;33.73;23.30;;;;;;;13.70;100.00;101443.31;5093261;28;20231;-70
2022/05/20 04:49:53;;;;;;;38.87;24.93;;;;;;;13.70;100.00;101454.69;5093138;28;20714;-70
2022/05/20 04:52:19;;;;;;;40.70;25.90;;;;;;;13.72;100.00;101447.63;5093028;28;20197;-70
2022/05/20 04:54:55;;;;;;;39.27;23.67;;;;;;;13.71;100.00;101443.25;5093060;28;20213;-70
2022/05/20 04:57:26;;;;;;;40.83;25.53;;;;;;;13.73;100.00;101437.94;5093388;28;20231;-70
2022/05/20 04:59:58;;;;;;;42.07;24.90;;;;;;;13.83;100.00;101436.59;5092922;28;20209;-70
2022/05/20 05:02:26;;;;;;;36.17;24.77;;;;;;;13.83;100.00;101439.25;5093445;28;20174;-70
2022/05/20 05:04:54;;;;;;;46.67;24.50;;;;;;;13.88;100.00;101436.41;5093592;28;20251;-70
2022/05/20 05:07:21;;;;;;;46.00;27.50;;;;;;;13.93;100.00;101435.31;5093578;28;20193;-70
2022/05/20 05:09:48;;;;;;;37.20;23.93;;;;;;;13.96;100.00;101431.66;5092888;28;20210;-70
2022/05/20 05:12:16;;;;;;;44.53;26.27;;;;;;;14.05;100.00;101429.47;5093288;28;20170;-69
2022/05/20 05:14:48;;;;;;;39.03;24.97;;;;;;;14.08;100.00;101428.50;5092841;28;20676;-69
2022/05/20 05:18:09;;;;;;;45.00;23.70;;;;;;;14.17;100.00;101422.81;5093262;28;20171;-69
2022/05/20 05:20:11;;;;;;;38.93;24.23;;;;;;;14.25;100.00;101411.94;5094354;28;20218;-70
2022/05/20 05:22:38;;;;;;;49.43;25.77;;;;;;;14.36;100.00;101406.16;5097275;28;20174;-70
2022/05/20 05:25:10;;;;;;;45.97;27.97;;;;;;;14.45;100.00;101405.75;5096902;28;20186;-70
2022/05/20 05:27:37;;;;;;;48.67;25.63;;;;;;;14.51;100.00;101402.88;5096581;28;20186;-70
2022/05/20 05:30:04;;;;;;;43.43;25.73;;;;;;;14.55;100.00;101404.41;5096568;28;20262;-70
2022/05/20 05:32:30;;;;;;;48.03;25.97;;;;;;;14.61;100.00;101401.50;5096395;28;20181;-70
2022/05/20 05:34:57;;;;;;;48.47;27.87;;;;;;;14.63;100.00;101399.63;5078518;28;20209;-70
2022/05/20 05:37:23;;;;;;;43.13;25.60;;;;;;;14.70;100.00;101397.56;5096151;28;20667;-70
2022/05/20 05:39:50;;;;;;;40.67;23.00;;;;;;;14.76;100.00;101405.19;5096241;28;20210;-70
2022/05/20 05:42:16;;;;;;;38.93;23.40;;;;;;;14.84;100.00;101400.41;5096259;28;20247;-70
2022/05/20 05:44:43;;;;;;;43.47;24.10;;;;;;;14.83;100.00;101396.06;5096473;28;20182;-70
2022/05/20 05:47:10;;;;;;;38.27;23.90;;;;;;;14.86;100.00;101388.88;5096193;28;20186;-70
2022/05/20 05:49:37;;;;;;;40.47;24.87;;;;;;;14.86;100.00;101380.13;5096100;28;20209;-70
2022/05/20 05:52:04;;;;;;;37.07;22.10;;;;;;;14.99;100.00;101377.72;5095911;28;20197;-70
2022/05/20 05:54:32;;;;;;;35.53;22.37;;;;;;;15.10;100.00;101372.78;5096311;28;20255;-70
2022/05/20 05:57:06;;;;;;;36.27;21.80;;;;;;;15.10;100.00;101368.34;5096303;28;20261;-70
2022/05/20 05:59:33;;;;;;;33.53;21.40;;;;;;;15.18;100.00;101359.19;5095842;28;20205;-70
2022/05/20 06:02:01;;;;;;;38.57;23.00;;;;;;;15.28;100.00;101348.09;5096339;28;20188;-70
2022/05/20 06:04:28;;;;;;;31.93;21.80;;;;;;;15.36;100.00;101345.09;5095804;28;20232;-70
2022/05/20 06:07:04;;;;;;;32.87;21.93;;;;;;;15.49;100.00;101340.00;5096406;28;20209;-70
2022/05/20 06:09:31;;;;;;;35.40;22.33;;;;;;;15.59;100.00;101338.63;5095713;28;20255;-70
2022/05/20 06:11:57;;;;;;;33.90;21.77;;;;;;;15.73;100.00;101330.84;5095960;28;20656;-70
2022/05/20 06:14:24;;;;;;;34.53;21.63;;;;;;;15.80;100.00;101336.66;5095579;28;20210;-70
2022/05/20 06:16:50;;;;;;;24.40;19.67;;;;;;;15.86;100.00;101336.31;5096166;28;20632;-70
2022/05/20 06:19:17;;;;;;;25.20;19.43;;;;;;;15.90;100.00;101340.50;5095499;28;20202;-70
2022/05/20 06:21:43;;;;;;;27.60;19.10;;;;;;;16.00;100.00;101336.44;5095855;28;20185;-70
2022/05/20 06:24:10;;;;;;;31.37;17.83;;;;;;;16.05;100.00;101334.41;5095540;28;20679;-70
2022/05/20 06:26:37;;;;;;;18.63;16.63;;;;;;;16.16;100.00;101337.31;5095447;28;20575;-70
2022/05/20 06:29:05;;;;;;;21.40;15.53;;;;;;;16.19;100.00;101344.22;5095623;28;20217;-70
2022/05/20 06:31:32;;;;;;;18.47;16.47;;;;;;;16.22;100.00;101344.91;5094791;28;20240;-70
2022/05/20 06:33:59;;;;;;;20.77;15.20;;;;;;;16.34;100.00;101339.88;5095883;28;20577;-70
2022/05/20 06:42:11;;;;;;;12.37;11.13;;;;;;;16.63;100.00;101327.66;5072188;28;20206;-70
2022/05/20 06:44:41;;;;;;;17.00;12.97;;;;;;;16.65;100.00;101331.94;5095411;28;20701;-69
2022/05/20 06:47:07;;;;;;;11.47;10.50;;;;;;;16.75;100.00;101327.84;5095601;28;20235;-69
2022/05/20 06:49:34;;;;;;;11.93;10.70;;;;;;;16.95;100.00;101336.44;5094913;28;20244;-69
2022/05/20 06:52:00;;;;;;;11.60;10.70;;;;;;;16.91;95.88;101338.41;5094708;28;20189;-69
2022/05/20 06:54:47;;;;;;;11.63;10.40;;;;;;;17.05;95.96;101342.91;5095128;28;20549;-70
2022/05/20 06:57:21;;;;;;;15.63;11.50;;;;;;;17.08;96.70;101341.88;5095177;28;20655;-70
2022/05/20 06:59:47;;;;;;;12.97;11.33;;;;;;;17.11;97.64;101345.19;5094753;28;20206;-70
2022/05/20 07:02:14;;;;;;;13.47;10.10;;;;;;;17.21;97.19;101345.50;5095022;28;20190;-70
2022/05/20 07:04:57;;;;;;;9.50;9.00;;;;;;;17.26;97.75;101344.28;5094631;28;20640;-70
2022/05/20 07:07:24;;;;;;;13.03;10.70;;;;;;;17.29;96.63;101335.34;5095231;28;20186;-71
2022/05/20 07:09:50;;;;;;;10.33;9.50;;;;;;;17.31;93.17;101336.94;5094547;28;20757;-70
2022/05/20 07:12:16;;;;;;;9.70;8.90;;;;;;;17.36;90.36;101327.84;5094807;28;20235;-70
2022/05/20 07:14:43;;;;;;;8.77;8.27;;;;;;;17.28;88.59;101330.94;5094457;28;20198;-70
2022/05/20 07:17:15;;;;;;;8.47;7.77;;;;;;;17.34;89.61;101328.78;5094721;28;20769;-71
2022/05/20 07:19:41;;;;;;;7.80;7.30;;;;;;;17.44;88.81;101331.75;5094909;28;20212;-70
2022/05/20 07:22:09;;;;;;;7.60;7.20;;;;;;;17.49;87.77;101324.38;5094943;28;20186;-70
2022/05/20 07:24:37;;;;;;;7.83;7.37;;;;;;;17.56;89.39;101322.19;5094639;28;20617;-70
2022/05/20 07:27:04;;;;;;;8.67;7.90;;;;;;;17.67;87.15;101324.22;5094297;28;20190;-71
2022/05/20 07:29:31;;;;;;;8.43;7.07;;;;;;;17.72;86.06;101308.94;5094428;28;20235;-70
2022/05/20 07:31:58;;;;;;;6.53;5.97;;;;;;;17.74;85.60;101305.22;5094197;28;20213;-70
2022/05/20 07:34:25;;;;;;;6.57;6.20;;;;;;;17.72;81.83;101303.63;5094076;28;20216;-70
2022/05/20 07:36:52;;;;;;;6.53;6.20;;;;;;;17.83;83.29;101294.06;5094122;28;20231;-70
2022/05/20 07:39:18;;;;;;;6.60;6.00;;;;;;;17.83;85.48;101296.72;5094056;28;20205;-70
2022/05/20 07:41:45;;;;;;;8.37;7.73;;;;;;;17.98;84.09;101284.28;5094032;28;20189;-70
2022/05/20 07:44:11;;;;;;;6.07;5.67;;;;;;;18.00;83.68;101282.41;5094095;28;20190;-70
2022/05/20 07:46:38;;;;;;;6.30;6.10;;;;;;;18.07;81.50;101289.03;5094161;28;20178;-70
2022/05/20 07:49:05;;;;;;;7.13;6.80;;;;;;;18.13;83.83;101287.78;5093717;28;20206;-71
2022/05/20 07:51:33;;;;;;;10.07;7.00;;;;;;;18.07;78.94;101282.84;5093894;28;20189;-71
2022/05/20 07:54:08;;;;;;;6.17;5.83;;;;;;;18.07;78.37;101273.13;5075610;28;20194;-70
2022/05/20 07:56:57;;;;;;;5.73;5.53;;;;;;;18.10;76.55;101269.44;5093984;28;20197;-70
2022/05/20 07:59:30;;;;;;;8.13;7.73;;;;;;;18.14;80.68;101268.25;5094321;28;20616;-71
2022/05/20 08:01:57;;;;;;;13.20;9.53;;;;;;;18.18;82.13;101268.94;5093714;28;20178;-71
2022/05/20 08:07:18;;;;;;;10.77;9.97;;;;;;;18.20;83.12;101254.63;5094163;28;20178;-70
2022/05/20 08:09:44;;;;;;;14.73;10.23;;;;;;;18.30;84.75;101254.91;5094021;28;20567;-70
2022/05/20 08:12:11;;;;;;;7.17;6.80;;;;;;;18.40;85.24;101258.63;5093829;28;20616;-70
2022/05/20 08:14:46;;;;;;;10.03;7.03;;;;;;;18.45;81.85;101267.16;5093412;28;20177;-70
2022/05/20 08:17:12;;;;;;;9.30;8.57;;;;;;;18.42;79.87;101260.22;5093494;28;20235;-70
2022/05/20 08:19:39;;;;;;;12.10;11.07;;;;;;;18.33;82.33;101252.88;5093684;28;20271;-70
2022/05/20 08:22:06;;;;;;;11.63;10.50;;;;;;;18.36;83.56;101251.81;5093408;28;20185;-70
2022/05/20 08:24:33;;;;;;;10.23;9.17;;;;;;;18.33;82.62;101246.72;5093431;28;20554;-70
2022/05/20 08:26:59;;;;;;;9.23;8.60;;;;;;;18.38;84.49;101247.28;5093598;28;20240;-70
2022/05/20 08:29:26;;;;;;;15.93;12.60;;;;;;;18.51;88.07;101237.56;5093376;28;20294;-70
2022/05/20 08:31:52;;;;;;;14.33;13.13;;;;;;;18.65;87.08;101236.66;5075429;28;20296;-70
2022/05/20 08:34:19;;;;;;;22.20;14.83;;;;;;;18.68;85.38;101237.31;5093293;28;20190;-70
2022/05/20 08:36:45;;;;;;;15.20;13.70;;;;;;;18.73;85.59;101238.84;5093203;28;20202;-70
2022/05/20 08:39:12;;;;;;;19.87;15.03;;;;;;;18.69;84.73;101232.88;5093444;28;20216;-70
2022/05/20 08:41:42;;;;;;;17.23;15.20;;;;;;;18.60;85.22;101223.69;5093447;28;20238;-70
2022/05/20 08:44:12;;;;;;;27.10;18.27;;;;;;;18.63;86.80;101223.47;5093757;28;20185;-69
2022/05/20 08:46:40;;;;;;;16.80;15.03;;;;;;;18.72;87.98;101227.38;5093448;28;20677;-69
2022/05/20 08:49:13;;;;;;;14.50;12.93;;;;;;;18.77;86.84;101219.94;5093045;28;20220;-70
2022/05/20 08:51:42;;;;;;;18.83;15.43;;;;;;;18.84;88.96;101221.22;5093151;28;20198;-70
2022/05/20 08:54:10;;;;;;;16.17;14.23;;;;;;;18.97;88.67;101222.09;5093114;28;20243;-70
2022/05/20 08:56:38;;;;;;;14.90;12.87;;;;;;;18.96;85.60;101228.34;5096663;28;20205;-70
2022/05/20 08:59:15;;;;;;;13.13;11.93;;;;;;;19.04;85.90;101224.31;5097659;28;20197;-70
2022/05/20 09:01:45;;;;;;;23.03;13.53;;;;;;;19.06;87.07;101211.78;5097428;28;20170;-70
2022/05/20 09:04:15;;;;;;;22.80;16.93;;;;;;;19.11;87.48;101213.19;5079094;28;20194;-70
2022/05/20 09:06:57;;;;;;;16.33;13.60;;;;;;;19.05;88.34;101208.28;5097071;28;20174;-70
2022/05/20 09:09:28;;;;;;;18.77;15.00;;;;;;;19.04;88.13;101205.75;5097218;28;20205;-71
2022/05/20 09:11:56;;;;;;;20.33;16.70;;;;;;;18.99;88.64;101208.69;5097465;28;20208;-70
2022/05/20 09:17:11;;;;;;;19.33;16.47;;;;;;;19.07;88.14;101198.41;5097048;28;20243;-70
2022/05/20 09:19:39;;;;;;;14.50;13.20;;;;;;;18.98;88.59;101185.78;5096848;28;20213;-70
2022/05/20 09:22:12;;;;;;;22.00;15.97;;;;;;;19.00;88.65;101178.53;5096694;28;20738;-70
2022/05/20 09:24:42;;;;;;;21.53;15.70;;;;;;;19.04;89.31;101163.28;5096960;28;20223;-70
2022/05/20 09:27:12;;;;;;;16.73;14.80;;;;;;;19.02;90.04;101165.19;5096885;28;20179;-70
2022/05/20 09:29:44;;;;;;;19.00;15.97;;;;;;;19.13;89.92;101165.28;5096821;28;20206;-70
2022/05/20 09:32:33;;;;;;;19.33;14.90;;;;;;;19.15;88.96;101161.59;5097446;28;20189;-70
2022/05/20 09:35:18;;;;;;;21.70;14.93;;;;;;;19.15;91.44;101153.63;5096728;28;20162;-70
2022/05/20 09:37:47;;;;;;;29.50;18.03;;;;;;;19.16;89.02;101154.47;5096383;28;20195;-70
2022/05/20 09:40:24;;;;;;;23.57;17.17;;;;;;;19.19;88.51;101157.72;5096307;28;20206;-71
2022/05/20 09:43:26;;;;;;;17.93;16.03;;;;;;;19.19;88.92;101143.63;5096605;28;20236;-71
2022/05/20 09:45:54;;;;;;;17.17;14.77;;;;;;;19.22;89.93;101146.91;5096834;28;20174;-71
2022/05/20 09:48:57;;;;;;;17.40;15.57;;;;;;;19.19;90.25;101146.28;5096210;28;20216;-71
2022/05/20 09:51:35;;;;;;;33.40;18.10;;;;;;;19.35;89.35;101127.44;5096264;28;20676;-71
2022/05/20 09:54:39;;;;;;;20.03;16.77;;;;;;;19.41;89.66;101124.34;5096435;28;20180;-70
2022/05/20 09:57:27;;;;;;;29.83;17.33;;;;;;;19.56;90.08;101115.25;5095893;28;20209;-70
2022/05/20 10:00:26;;;;;;;17.77;15.87;;;;;;;19.74;92.65;101116.63;5095997;28;20206;-71
2022/05/20 10:03:12;;;;;;;20.97;17.17;;;;;;;19.75;88.94;101112.16;5041157;28;20209;-70
2022/05/20 10:05:57;;;;;;;26.87;17.70;;;;;;;19.89;90.89;101095.19;5094896;28;20174;-71
2022/05/20 10:08:32;;;;;;;25.97;15.47;;;;;;;20.02;91.21;101088.84;5094781;28;20178;-71
2022/05/20 10:11:10;;;;;;;20.27;16.53;;;;;;;20.19;88.80;101089.38;5095891;28;20232;-71
2022/05/20 10:13:41;;;;;;;25.63;16.43;;;;;;;20.16;89.73;101079.84;5096050;28;20166;-70
2022/05/20 10:16:43;;;;;;;20.43;15.77;;;;;;;20.25;90.08;101079.13;5095600;28;20194;-70
2022/05/20 10:19:30;;;;;;;16.00;13.70;;;;;;;20.36;89.93;101065.03;5074773;28;20277;-71
2022/05/20 10:22:18;;;;;;;20.90;16.77;;;;;;;20.48;91.27;101061.44;5114165;28;20193;-71
2022/05/20 10:25:02;;;;;;;24.30;15.97;;;;;;;20.45;89.39;101059.03;5116472;28;20189;-71
2022/05/20 10:27:54;;;;;;;26.10;17.20;;;;;;;20.45;89.99;101058.19;5099309;28;20240;-71
2022/05/20 10:33:21;;;;;;;21.87;14.33;;;;;;;20.50;90.70;101040.91;5111594;28;20603;-70
2022/05/20 10:36:21;;;;;;;23.57;17.60;;;;;;;20.51;89.73;101034.63;5097969;28;20736;-71
2022/05/20 10:39:07;;;;;;;24.87;16.57;;;;;;;20.54;89.08;101026.38;5104901;28;20181;-73
2022/05/20 10:42:16;;;;;;;21.40;16.10;;;;;;;20.57;90.04;101014.63;5111479;28;20274;-70
2022/05/20 10:50:58;;;;;;;22.57;16.53;;;;;;;20.59;89.37;100989.63;5115275;28;20273;-71
2022/05/20 10:54:06;;;;;;;22.20;16.37;;;;;;;20.74;91.65;100984.91;5115625;28;20238;-71
2022/05/20 10:56:51;;;;;;;22.80;16.87;;;;;;;20.79;91.53;100968.56;5074062;28;20284;-71
2022/05/20 10:59:30;;;;;;;17.83;15.93;;;;;;;20.80;90.85;100952.47;5109472;28;20265;-71
2022/05/20 11:02:14;;;;;;;17.33;14.60;;;;;;;20.93;92.42;100928.34;5111006;28;20193;-71
2022/05/20 11:05:10;;;;;;;23.57;15.77;;;;;;;20.97;90.78;100920.97;5112651;28;20189;-71
2022/05/20 11:08:09;;;;;;;24.50;16.87;;;;;;;21.07;89.70;100906.75;5114546;28;20243;-71
2022/05/20 11:10:56;;;;;;;19.87;15.60;;;;;;;21.17;92.29;100897.06;5113276;28;20204;-72
2022/05/20 11:13:45;;;;;;;19.13;15.87;;;;;;;21.31;90.07;100889.78;5106223;28;20655;-71
2022/05/20 11:16:20;;;;;;;22.23;16.30;;;;;;;21.37;89.83;100875.94;5107243;28;20535;-72
2022/05/20 11:19:28;;;;;;;26.17;18.17;;;;;;;21.39;89.65;100868.66;5105551;28;20663;-70
2022/05/20 11:22:10;;;;;;;21.63;14.83;;;;;;;21.49;91.10;100855.41;5012708;28;20559;-70
2022/05/20 11:24:48;;;;;;;19.33;14.20;;;;;;;21.62;92.90;100854.22;5102229;28;20588;-70
2022/05/20 11:27:26;;;;;;;17.17;15.37;;;;;;;21.68;91.04;100840.38;5115229;28;20174;-71
2022/05/20 11:30:05;;;;;;;23.80;15.27;;;;;;;21.81;91.93;100842.84;5109026;28;20792;-71
2022/05/20 11:32:47;;;;;;;24.13;16.80;;;;;;;21.80;91.21;100837.63;5095967;28;20192;-71
2022/05/20 11:35:43;;;;;;;15.27;13.20;;;;;;;21.87;90.71;100834.31;5099378;28;20239;-73
2022/05/20 11:38:42;;;;;;;23.13;17.03;;;;;;;21.95;90.50;100825.63;5083471;28;20688;-71
2022/05/20 11:41:48;;;;;;;29.83;16.43;;;;;;;21.90;89.46;100825.19;5106917;28;20181;-72
2022/05/20 11:44:35;;;;;;;18.93;14.50;;;;;;;21.99;90.61;100819.03;5114514;28;20211;-71
2022/05/20 11:47:14;;;;;;;25.33;17.40;;;;;;;22.02;89.26;100816.13;5103401;28;20318;-70
2022/05/20 11:49:46;;;;;;;25.70;16.67;;;;;;;21.97;89.37;100807.69;5101720;28;20212;-70
2022/05/20 11:52:39;;;;;;;20.67;15.63;;;;;;;22.06;90.34;100801.53;5115136;28;20274;-72
2022/05/20 11:55:23;;;;;;;22.40;15.20;;;;;;;22.07;89.86;100795.19;5103547;28;20203;-73
2022/05/20 11:57:58;;;;;;;20.20;15.43;;;;;;;22.11;90.24;100788.66;5079138;28;20193;-73
2022/05/20 12:00:25;;;;;;;17.37;14.53;;;;;;;22.29;89.99;100783.53;5114129;28;20617;-73
2022/05/20 12:03:03;;;;;;;29.07;15.43;;;;;;;22.39;90.59;100773.72;5114502;28;20170;-74